Time;durP1;ratioP1;P1;durP2;ratioP2;P2;SDS_P1;SDS_P2;PMS_P1;PMS_P2;Temp;Humidity;BMP_temperature;BMP_pressure;BME280_temperature;BME280_humidity;BME280_pressure;Samples;Min_cycle;Max_cycle;Signal;HPM_P1;HPM_P2
2021/10/02 00:35:17;;;;;;;0.38;0.10;;;23.50;53.60;;;;;;4993608;28;20136;-48
2021/10/02 00:37:52;;;;;;;0.73;0.30;;;23.50;53.60;;;;;;4996556;28;20050;-47
2021/10/02 00:45:51;;;;;;;0.40;0.10;;;23.40;53.70;;;;;;4989604;28;20050;-48
2021/10/02 00:48:19;;;;;;;0.50;0.10;;;23.40;53.70;;;;;;4985159;28;20062;-48
2021/10/02 00:50:48;;;;;;;1.35;0.43;;;23.40;53.70;;;;;;4997779;28;20053;-51
2021/10/02 00:53:16;;;;;;;1.00;0.10;;;23.40;53.90;;;;;;4991652;28;20049;-48
2021/10/02 00:55:43;;;;;;;0.60;0.13;;;23.30;53.90;;;;;;5039301;28;20048;-48
2021/10/02 00:58:11;;;;;;;0.17;0.13;;;23.30;53.90;;;;;;5067482;28;20040;-51
2021/10/02 01:00:40;;;;;;;0.17;0.10;;;23.40;54.00;;;;;;5064717;28;20036;-48
2021/10/02 01:03:18;;;;;;;0.93;0.10;;;23.40;54.00;;;;;;5056803;28;20037;-48
2021/10/02 01:05:58;;;;;;;0.35;0.10;;;23.40;54.10;;;;;;5053024;28;20051;-48
2021/10/02 01:08:38;;;;;;;3.42;1.38;;;23.40;54.20;;;;;;5054504;28;20478;-47
2021/10/02 01:11:24;;;;;;;0.35;0.10;;;23.30;54.10;;;;;;5051488;28;20124;-47
2021/10/02 01:14:02;;;;;;;0.88;0.10;;;23.30;54.30;;;;;;5053383;28;20170;-48
2021/10/02 01:16:32;;;;;;;0.32;0.15;;;23.30;54.30;;;;;;5052578;28;20054;-49
2021/10/02 01:19:13;;;;;;;1.40;0.10;;;23.30;54.30;;;;;;5051753;28;20089;-48
2021/10/02 01:21:52;;;;;;;1.35;0.08;;;23.30;54.40;;;;;;5050268;28;20037;-52
2021/10/02 01:24:30;;;;;;;1.05;0.22;;;23.20;54.30;;;;;;5050025;28;20063;-52
2021/10/02 01:27:32;;;;;;;0.57;0.10;;;23.20;54.30;;;;;;5055646;28;20045;-50
2021/10/02 01:30:07;;;;;;;1.25;0.10;;;23.20;54.30;;;;;;5058550;28;20516;-51
2021/10/02 01:32:42;;;;;;;1.45;0.10;;;23.20;54.50;;;;;;5060406;28;20502;-49
2021/10/02 01:35:16;;;;;;;0.63;0.63;;;23.20;54.60;;;;;;5048964;28;20064;-51
2021/10/02 01:47:07;;;;;;;0.22;0.10;;;23.20;54.60;;;;;;5052177;28;20048;-49
2021/10/02 01:49:05;;;;;;;1.58;0.35;;;23.20;54.80;;;;;;5050270;28;20068;-47
2021/10/02 01:51:32;;;;;;;0.65;0.30;;;23.20;54.90;;;;;;5051988;28;20044;-47
2021/10/02 01:54:01;;;;;;;0.30;0.10;;;23.20;54.90;;;;;;5053551;28;20520;-49
2021/10/02 01:56:29;;;;;;;0.13;0.13;;;23.10;54.90;;;;;;5055523;28;20944;-49
2021/10/02 01:58:57;;;;;;;0.55;0.47;;;23.10;55.00;;;;;;5065379;28;20047;-50
2021/10/02 02:01:26;;;;;;;0.93;0.20;;;23.10;54.90;;;;;;5062175;28;20501;-46
2021/10/02 02:03:56;;;;;;;1.08;0.20;;;23.10;54.80;;;;;;5067402;28;20068;-49
2021/10/02 02:06:26;;;;;;;0.65;0.10;;;23.10;54.90;;;;;;5054648;28;20054;-48
2021/10/02 02:08:55;;;;;;;1.25;0.10;;;23.10;54.90;;;;;;5053386;28;20148;-49
2021/10/02 02:11:24;;;;;;;0.70;0.40;;;23.10;54.90;;;;;;5052590;28;20036;-48
2021/10/02 02:13:53;;;;;;;1.02;0.10;;;23.10;54.90;;;;;;5051549;28;20118;-49
2021/10/02 02:16:21;;;;;;;1.05;0.10;;;23.10;54.90;;;;;;5049435;28;20057;-52
2021/10/02 02:18:50;;;;;;;1.05;0.20;;;23.10;54.90;;;;;;5049541;28;20044;-48
2021/10/02 02:21:19;;;;;;;0.15;0.10;;;23.10;54.90;;;;;;5054108;28;20416;-49
2021/10/02 02:23:47;;;;;;;0.20;0.10;;;23.10;55.00;;;;;;5057992;28;20045;-48
2021/10/02 02:26:15;;;;;;;0.20;0.00;;;23.10;55.00;;;;;;5053566;28;20474;-47
2021/10/02 02:28:42;;;;;;;0.10;0.10;;;23.10;54.90;;;;;;5067087;28;20150;-49
2021/10/02 02:31:10;;;;;;;1.42;0.10;;;23.10;54.80;;;;;;5063258;28;20040;-49
2021/10/02 02:33:39;;;;;;;0.20;0.10;;;23.00;54.80;;;;;;5061596;28;20036;-49
2021/10/02 02:36:08;;;;;;;0.10;0.10;;;23.10;54.80;;;;;;5054790;28;20060;-51
2021/10/02 02:38:35;;;;;;;0.75;0.10;;;23.10;54.80;;;;;;5060994;28;20128;-48
2021/10/02 02:41:04;;;;;;;0.35;0.10;;;23.00;54.80;;;;;;5051935;28;20037;-52
2021/10/02 02:43:33;;;;;;;0.30;0.10;;;23.00;54.90;;;;;;5051299;28;20063;-53
2021/10/02 02:46:06;;;;;;;0.10;0.10;;;23.00;55.50;;;;;;5049572;28;20672;-50
2021/10/02 02:48:40;;;;;;;1.25;0.00;;;23.00;54.90;;;;;;5048682;28;20053;-47
2021/10/02 02:51:13;;;;;;;1.05;0.10;;;23.00;54.90;;;;;;5055938;28;20036;-48
2021/10/02 02:53:46;;;;;;;0.28;0.10;;;23.00;54.90;;;;;;5052009;28;20033;-47
2021/10/02 02:56:18;;;;;;;1.60;0.10;;;23.00;54.90;;;;;;5052955;28;20130;-49
2021/10/02 02:58:49;;;;;;;0.40;0.00;;;23.00;54.90;;;;;;5052080;28;20037;-47
2021/10/02 03:01:17;;;;;;;0.57;0.10;;;23.00;54.90;;;;;;5062516;28;20037;-49
2021/10/02 03:03:45;;;;;;;1.65;0.10;;;23.00;55.50;;;;;;5053590;28;20037;-47
2021/10/02 03:06:15;;;;;;;0.10;0.10;;;23.00;54.90;;;;;;5051404;28;20041;-48
2021/10/02 03:08:44;;;;;;;1.40;0.10;;;23.00;54.90;;;;;;5053246;28;20041;-50
2021/10/02 03:11:13;;;;;;;0.38;0.10;;;23.00;54.90;;;;;;5047283;28;20041;-49
2021/10/02 03:13:42;;;;;;;0.55;0.10;;;23.00;54.90;;;;;;5071418;28;20040;-51
2021/10/02 03:16:12;;;;;;;0.80;0.10;;;23.00;54.90;;;;;;5047879;28;20059;-48
2021/10/02 03:18:42;;;;;;;0.10;0.03;;;23.00;54.90;;;;;;5050417;28;20044;-48
2021/10/02 03:21:10;;;;;;;0.20;0.10;;;23.00;54.90;;;;;;5050713;28;20059;-49
2021/10/02 03:23:39;;;;;;;0.20;0.08;;;23.00;54.90;;;;;;5051285;28;20052;-49
2021/10/02 03:26:07;;;;;;;2.17;0.45;;;23.00;54.90;;;;;;5063788;28;20477;-50
2021/10/02 03:28:35;;;;;;;2.90;0.10;;;23.00;54.90;;;;;;5049382;28;20043;-50
2021/10/02 03:31:02;;;;;;;0.70;0.10;;;23.00;54.80;;;;;;5063732;28;20116;-49
2021/10/02 03:33:30;;;;;;;0.35;0.10;;;22.90;54.70;;;;;;5050637;28;20075;-52
2021/10/02 03:35:57;;;;;;;1.65;0.35;;;23.00;54.90;;;;;;5049216;28;20064;-48
2021/10/02 03:38:25;;;;;;;0.15;0.10;;;23.00;55.00;;;;;;5052600;28;20032;-53
2021/10/02 03:40:59;;;;;;;0.38;0.03;;;23.00;54.90;;;;;;5049925;28;20123;-48
2021/10/02 03:43:30;;;;;;;0.10;0.00;;;23.00;54.90;;;;;;5050529;28;20049;-53
2021/10/02 03:45:57;;;;;;;2.33;0.10;;;22.90;54.90;;;;;;5048887;28;20084;-49
2021/10/02 03:48:24;;;;;;;0.17;0.17;;;22.90;54.90;;;;;;5052195;28;20067;-49
2021/10/02 03:50:52;;;;;;;0.73;0.05;;;22.90;54.90;;;;;;5052344;28;20041;-52
2021/10/02 03:53:19;;;;;;;0.43;0.10;;;22.90;54.90;;;;;;5053695;28;20090;-50
2021/10/02 03:55:46;;;;;;;0.45;0.20;;;22.90;54.90;;;;;;5048696;28;20049;-50
2021/10/02 03:58:15;;;;;;;0.90;0.10;;;22.90;54.90;;;;;;5050511;28;20413;-47
2021/10/02 04:00:42;;;;;;;2.05;0.13;;;22.90;54.90;;;;;;5060217;28;20132;-49
2021/10/02 04:03:09;;;;;;;5.60;0.52;;;22.90;54.90;;;;;;5054958;28;20128;-48
2021/10/02 04:05:36;;;;;;;6.25;0.00;;;22.90;54.90;;;;;;5051778;28;20171;-49
2021/10/02 04:08:03;;;;;;;0.52;0.00;;;22.90;54.90;;;;;;5057157;28;20045;-50
2021/10/02 04:10:30;;;;;;;0.10;0.10;;;22.90;54.90;;;;;;5060198;28;20060;-48
2021/10/02 04:12:57;;;;;;;0.32;0.10;;;22.90;54.90;;;;;;5061985;28;20416;-49
2021/10/02 04:15:26;;;;;;;0.30;0.10;;;22.90;54.90;;;;;;5051384;28;20094;-48
2021/10/02 04:17:53;;;;;;;0.22;0.00;;;22.90;54.90;;;;;;5053060;28;20525;-48
2021/10/02 04:20:20;;;;;;;0.10;0.08;;;22.90;54.90;;;;;;5051744;28;20037;-48
2021/10/02 04:22:47;;;;;;;0.28;0.28;;;22.90;54.90;;;;;;5066599;28;20409;-49
2021/10/02 04:25:14;;;;;;;0.20;0.10;;;22.90;54.90;;;;;;5062954;28;20064;-48
2021/10/02 04:27:41;;;;;;;0.00;0.00;;;22.90;54.90;;;;;;5058895;28;20044;-48
2021/10/02 04:30:09;;;;;;;0.28;0.08;;;22.90;54.90;;;;;;5058248;28;20037;-49
2021/10/02 04:32:37;;;;;;;2.78;0.10;;;22.90;54.90;;;;;;5058552;28;20044;-49
2021/10/02 04:35:06;;;;;;;0.10;0.10;;;22.90;55.00;;;;;;5052206;28;20041;-48
2021/10/02 04:37:33;;;;;;;1.33;0.00;;;22.90;55.00;;;;;;5068916;28;20102;-51
2021/10/02 04:40:00;;;;;;;2.13;0.60;;;22.90;54.90;;;;;;5047934;28;20041;-53
2021/10/02 04:42:27;;;;;;;0.30;0.00;;;22.90;54.90;;;;;;5066143;28;20042;-50
2021/10/02 04:44:54;;;;;;;0.10;0.00;;;22.80;54.90;;;;;;5060575;28;20517;-49
2021/10/02 04:47:23;;;;;;;5.40;0.45;;;22.90;54.90;;;;;;5061182;28;20036;-49
2021/10/02 04:49:53;;;;;;;2.58;0.10;;;22.90;54.90;;;;;;5069054;28;20028;-49
2021/10/02 04:52:20;;;;;;;4.22;0.10;;;22.80;54.90;;;;;;5058088;28;20036;-50
2021/10/02 04:54:47;;;;;;;1.83;0.03;;;22.90;54.90;;;;;;5051931;28;20499;-48
2021/10/02 04:57:14;;;;;;;2.50;0.10;;;22.80;54.80;;;;;;5063711;28;20072;-47
2021/10/02 04:59:41;;;;;;;0.82;0.22;;;22.90;54.90;;;;;;5065969;28;20040;-52
2021/10/02 05:02:08;;;;;;;0.85;0.00;;;22.80;54.80;;;;;;5067414;28;20047;-48
2021/10/02 05:04:35;;;;;;;0.88;0.10;;;22.80;55.00;;;;;;5068914;28;20048;-50
2021/10/02 05:07:03;;;;;;;0.10;0.00;;;22.80;54.80;;;;;;5066623;28;20434;-48
2021/10/02 05:09:30;;;;;;;6.32;0.10;;;22.80;54.80;;;;;;5054471;28;20037;-50
2021/10/02 05:11:58;;;;;;;0.10;0.10;;;22.80;54.80;;;;;;5053722;28;20053;-52
2021/10/02 05:14:25;;;;;;;0.40;0.10;;;22.80;54.80;;;;;;5052603;28;20032;-51
2021/10/02 05:16:52;;;;;;;3.50;0.10;;;22.80;54.80;;;;;;5052965;28;20064;-51
2021/10/02 05:19:19;;;;;;;0.65;0.10;;;22.80;54.80;;;;;;5049844;28;20537;-53
2021/10/02 05:21:46;;;;;;;0.52;0.10;;;22.80;54.80;;;;;;5061392;28;20496;-48
2021/10/02 05:24:14;;;;;;;3.03;0.10;;;22.80;54.80;;;;;;5055175;28;20455;-49
2021/10/02 05:26:41;;;;;;;0.10;0.10;;;22.80;54.80;;;;;;5052432;28;20033;-49
2021/10/02 05:29:09;;;;;;;1.85;0.10;;;22.90;54.80;;;;;;5053780;28;20044;-48
2021/10/02 05:31:35;;;;;;;0.40;0.10;;;22.80;54.80;;;;;;5064723;28;20047;-52
2021/10/02 05:34:03;;;;;;;1.92;0.10;;;22.80;54.70;;;;;;5081182;28;20032;-48
2021/10/02 05:36:30;;;;;;;2.92;0.10;;;22.80;54.70;;;;;;5054197;28;20049;-50
2021/10/02 05:38:57;;;;;;;1.00;0.10;;;22.80;54.70;;;;;;5053335;28;20536;-49
2021/10/02 05:41:25;;;;;;;0.60;0.38;;;22.80;54.70;;;;;;5052626;28;20080;-50
2021/10/02 05:43:52;;;;;;;1.85;0.10;;;22.90;54.80;;;;;;5052999;28;20509;-49
2021/10/02 05:46:19;;;;;;;0.70;0.10;;;22.80;54.70;;;;;;5049895;28;20037;-52
2021/10/02 05:48:46;;;;;;;1.52;0.20;;;22.80;55.40;;;;;;5053842;28;20047;-50
2021/10/02 05:51:13;;;;;;;7.63;0.10;;;22.80;54.80;;;;;;5063673;28;20037;-49
2021/10/02 05:53:40;;;;;;;5.15;0.00;;;22.90;54.90;;;;;;5066174;28;20033;-52
2021/10/02 05:56:07;;;;;;;3.22;1.05;;;22.80;55.00;;;;;;5061714;28;20037;-54
2021/10/02 05:58:35;;;;;;;5.07;0.10;;;22.80;55.60;;;;;;5065905;28;20040;-55
2021/10/02 06:01:02;;;;;;;7.32;0.10;;;22.80;55.60;;;;;;5066629;28;20032;-50
2021/10/02 06:03:29;;;;;;;3.63;0.20;;;22.80;55.60;;;;;;5057250;28;20037;-49
2021/10/02 06:06:00;;;;;;;6.32;0.20;;;22.90;55.70;;;;;;5057354;28;20107;-46
2021/10/02 06:08:27;;;;;;;1.48;0.20;;;22.90;55.60;;;;;;5063110;28;20053;-45
2021/10/02 06:10:55;;;;;;;3.45;0.40;;;22.90;55.50;;;;;;5067387;28;20072;-46
2021/10/02 06:13:22;;;;;;;5.38;0.10;;;23.00;55.50;;;;;;5058769;28;20052;-47
2021/10/02 06:15:50;;;;;;;5.35;0.20;;;23.00;55.50;;;;;;5051330;28;20504;-47
2021/10/02 06:18:17;;;;;;;8.70;1.65;;;23.00;55.30;;;;;;5051292;28;20041;-46
2021/10/02 06:20:44;;;;;;;8.80;0.55;;;23.00;55.20;;;;;;5051196;28;20106;-48
2021/10/02 06:23:11;;;;;;;2.15;0.40;;;23.00;55.20;;;;;;5055952;28;20034;-47
2021/10/02 06:25:38;;;;;;;2.17;0.30;;;23.10;55.20;;;;;;5052186;28;20037;-46
2021/10/02 06:28:06;;;;;;;2.90;0.30;;;23.00;54.90;;;;;;5065429;28;20071;-46
2021/10/02 06:30:33;;;;;;;6.07;0.15;;;23.00;54.90;;;;;;5057665;28;20040;-47
2021/10/02 06:33:01;;;;;;;1.50;0.10;;;23.10;54.90;;;;;;5057678;28;20063;-46
2021/10/02 06:35:29;;;;;;;1.48;0.10;;;23.10;54.80;;;;;;5051556;28;20041;-47
2021/10/02 06:37:57;;;;;;;1.50;0.20;;;23.10;54.70;;;;;;5051610;28;20037;-46
2021/10/02 06:40:25;;;;;;;1.38;0.08;;;23.00;54.60;;;;;;5050788;28;20434;-50
2021/10/02 06:42:52;;;;;;;0.43;0.10;;;23.10;54.50;;;;;;5058311;28;20046;-47
2021/10/02 06:45:19;;;;;;;2.17;0.10;;;23.10;54.50;;;;;;5054510;28;20044;-46
2021/10/02 06:47:46;;;;;;;1.55;0.10;;;23.10;54.40;;;;;;5052354;28;20098;-46
2021/10/02 06:50:15;;;;;;;0.90;0.35;;;23.10;54.30;;;;;;5050815;28;20036;-49
2021/10/02 06:52:42;;;;;;;3.03;0.43;;;23.10;54.30;;;;;;5050770;28;20966;-48
2021/10/02 06:55:10;;;;;;;2.15;0.20;;;23.10;54.20;;;;;;5048472;28;20045;-46
2021/10/02 06:57:37;;;;;;;2.38;0.25;;;23.10;54.20;;;;;;5048660;28;20128;-50
2021/10/02 07:00:06;;;;;;;1.27;0.10;;;23.00;54.00;;;;;;5058507;28;20036;-47
2021/10/02 07:02:33;;;;;;;3.13;0.30;;;23.10;54.00;;;;;;5063746;28;20143;-49
2021/10/02 07:05:00;;;;;;;0.70;0.35;;;23.00;53.90;;;;;;5051033;28;20052;-49
2021/10/02 07:07:28;;;;;;;0.47;0.10;;;23.10;53.90;;;;;;5048070;28;20057;-49
2021/10/02 07:09:55;;;;;;;3.13;0.20;;;23.00;53.80;;;;;;5054852;28;20048;-46
2021/10/02 07:12:22;;;;;;;1.17;0.10;;;23.10;53.90;;;;;;5061759;28;20036;-47
2021/10/02 07:14:49;;;;;;;0.47;0.05;;;23.00;53.70;;;;;;5062940;28;20045;-49
2021/10/02 07:17:16;;;;;;;1.55;0.10;;;23.00;53.70;;;;;;5052229;28;20076;-47
2021/10/02 07:19:43;;;;;;;1.00;0.10;;;23.00;53.70;;;;;;5063616;28;20056;-46
2021/10/02 07:22:10;;;;;;;1.60;0.17;;;23.00;53.60;;;;;;5051242;28;20402;-47
2021/10/02 07:24:39;;;;;;;1.52;0.10;;;23.00;53.60;;;;;;5052482;28;20401;-47
2021/10/02 07:27:06;;;;;;;2.88;0.30;;;23.00;53.50;;;;;;5051878;28;20037;-46
2021/10/02 07:29:33;;;;;;;2.42;0.10;;;23.00;53.50;;;;;;5056223;28;20040;-49
2021/10/02 07:32:00;;;;;;;0.75;0.10;;;23.00;53.40;;;;;;5063236;28;20110;-47
2021/10/02 07:34:28;;;;;;;0.40;0.20;;;23.00;53.40;;;;;;5051146;28;20037;-49
2021/10/02 07:36:56;;;;;;;1.38;0.10;;;23.00;53.30;;;;;;5049017;28;20778;-46
2021/10/02 07:39:23;;;;;;;2.08;0.30;;;23.00;53.30;;;;;;5050259;28;20040;-46
2021/10/02 07:41:53;;;;;;;1.25;0.20;;;23.00;53.30;;;;;;5051620;28;20037;-46
2021/10/02 07:44:25;;;;;;;1.15;0.10;;;23.00;53.20;;;;;;5052011;28;20044;-47
2021/10/02 07:46:54;;;;;;;0.30;0.10;;;23.00;53.20;;;;;;5049719;28;20041;-46
2021/10/02 07:49:23;;;;;;;1.95;0.10;;;23.00;53.20;;;;;;5055468;28;20412;-47
2021/10/02 07:51:51;;;;;;;0.98;0.40;;;23.00;53.20;;;;;;5050992;28;20571;-47
2021/10/02 07:54:19;;;;;;;0.40;0.10;;;23.00;53.20;;;;;;5050678;28;20041;-47
2021/10/02 07:56:46;;;;;;;0.75;0.20;;;23.00;53.10;;;;;;5051569;28;20053;-47
2021/10/02 07:59:16;;;;;;;0.50;0.10;;;23.00;53.00;;;;;;5049876;28;20065;-47
2021/10/02 08:01:43;;;;;;;0.80;0.20;;;23.00;53.00;;;;;;5062335;28;20051;-46
2021/10/02 08:04:10;;;;;;;2.08;0.20;;;23.00;53.00;;;;;;5066780;28;20047;-46
2021/10/02 08:06:38;;;;;;;1.38;0.03;;;23.00;53.00;;;;;;5050564;28;20043;-48
2021/10/02 08:09:07;;;;;;;0.10;0.10;;;23.00;52.90;;;;;;5049901;28;20037;-48
2021/10/02 08:11:34;;;;;;;7.15;0.13;;;23.00;52.90;;;;;;5049863;28;20052;-46
2021/10/02 08:14:01;;;;;;;0.38;0.20;;;23.00;52.90;;;;;;5049774;28;20059;-47
2021/10/02 08:16:31;;;;;;;1.13;0.10;;;23.00;52.90;;;;;;5048042;28;20052;-48
2021/10/02 08:19:01;;;;;;;0.30;0.10;;;23.00;52.90;;;;;;5048914;28;20579;-46
2021/10/02 08:21:29;;;;;;;0.43;0.10;;;23.00;52.80;;;;;;5049388;28;20417;-46
2021/10/02 08:23:57;;;;;;;1.38;0.30;;;23.00;52.80;;;;;;5058702;28;20041;-46
2021/10/02 08:26:27;;;;;;;1.58;0.10;;;23.00;52.80;;;;;;5063139;28;20492;-47
2021/10/02 08:28:54;;;;;;;2.08;0.43;;;23.00;52.80;;;;;;5069370;28;20040;-46
2021/10/02 08:31:24;;;;;;;1.67;0.35;;;23.00;52.80;;;;;;5066348;28;20570;-49
2021/10/02 08:33:52;;;;;;;1.23;0.10;;;23.00;52.80;;;;;;5069572;28;20894;-46
2021/10/02 08:36:20;;;;;;;2.83;0.10;;;23.00;52.80;;;;;;5055183;28;20047;-46
2021/10/02 08:38:47;;;;;;;0.45;0.13;;;23.00;52.80;;;;;;5054619;28;20425;-47
2021/10/02 08:41:17;;;;;;;1.65;0.30;;;23.00;52.80;;;;;;5053252;28;20048;-49
2021/10/02 08:43:48;;;;;;;1.73;0.10;;;23.00;52.80;;;;;;5061740;28;20774;-50
2021/10/02 08:46:16;;;;;;;0.93;0.28;;;23.00;52.70;;;;;;5054253;28;20147;-48
2021/10/02 08:48:47;;;;;;;0.52;0.20;;;23.00;52.70;;;;;;5079321;28;20066;-48
2021/10/02 08:51:16;;;;;;;1.15;0.05;;;23.00;52.70;;;;;;5059823;28;20075;-48
2021/10/02 08:53:44;;;;;;;1.17;0.30;;;23.00;52.60;;;;;;5055608;28;20827;-46
2021/10/02 08:56:11;;;;;;;0.73;0.10;;;23.00;52.70;;;;;;5059991;28;20043;-49
2021/10/02 08:58:38;;;;;;;3.00;1.23;;;23.00;52.60;;;;;;5069557;28;20036;-48
2021/10/02 09:01:05;;;;;;;1.85;0.17;;;23.00;52.60;;;;;;5067158;28;20044;-46
2021/10/02 09:03:33;;;;;;;0.75;0.75;;;23.00;52.60;;;;;;5062990;28;20500;-45
2021/10/02 09:06:00;;;;;;;1.38;0.10;;;23.00;52.50;;;;;;5063168;28;20056;-46
2021/10/02 09:08:29;;;;;;;1.45;0.10;;;23.00;52.50;;;;;;5064504;28;20052;-47
2021/10/02 09:10:56;;;;;;;1.98;0.30;;;23.00;52.50;;;;;;5053405;28;20045;-48
2021/10/02 09:13:23;;;;;;;0.85;0.10;;;23.00;52.50;;;;;;5069928;28;20041;-48
2021/10/02 09:15:50;;;;;;;0.47;0.10;;;23.00;52.50;;;;;;5055478;28;20041;-49
2021/10/02 09:18:17;;;;;;;0.52;0.25;;;23.00;52.40;;;;;;5053960;28;20489;-48
2021/10/02 09:20:44;;;;;;;0.85;0.38;;;23.00;52.40;;;;;;5056034;28;20048;-48
2021/10/02 09:23:12;;;;;;;1.45;0.30;;;23.00;52.40;;;;;;5062422;28;20383;-46
2021/10/02 09:25:48;;;;;;;3.00;0.10;;;23.00;52.30;;;;;;5067039;28;20040;-48
2021/10/02 09:28:17;;;;;;;0.50;0.10;;;23.10;52.40;;;;;;5066789;28;20123;-46
2021/10/02 09:30:47;;;;;;;1.45;0.22;;;23.00;52.30;;;;;;5066236;28;20045;-51
2021/10/02 09:33:19;;;;;;;0.47;0.10;;;23.00;52.30;;;;;;5061084;28;20055;-46
2021/10/02 09:35:46;;;;;;;0.55;0.10;;;23.10;52.30;;;;;;5062275;28;20064;-45
2021/10/02 09:38:15;;;;;;;0.90;0.28;;;23.10;52.30;;;;;;5062093;28;20137;-48
2021/10/02 09:40:51;;;;;;;1.05;0.40;;;23.10;52.20;;;;;;5066220;28;20045;-47
2021/10/02 09:43:19;;;;;;;1.65;0.10;;;23.10;52.20;;;;;;5070367;28;20393;-46
2021/10/02 09:45:49;;;;;;;1.85;0.10;;;23.00;52.10;;;;;;5054652;28;20044;-47
2021/10/02 09:48:24;;;;;;;1.55;0.10;;;23.10;52.20;;;;;;5061463;28;20120;-48
2021/10/02 09:50:51;;;;;;;0.83;0.10;;;23.10;52.10;;;;;;5060147;28;20037;-54
2021/10/02 09:53:21;;;;;;;0.35;0.10;;;23.10;52.20;;;;;;5051501;28;20417;-48
2021/10/02 09:55:52;;;;;;;1.20;0.10;;;23.00;52.00;;;;;;5065461;28;20523;-47
2021/10/02 09:58:32;;;;;;;2.40;0.00;;;23.10;52.10;;;;;;5066776;28;20163;-45
2021/10/02 10:01:01;;;;;;;0.13;0.10;;;23.10;52.00;;;;;;5068283;28;20048;-46
2021/10/02 10:03:41;;;;;;;0.30;0.10;;;23.00;52.00;;;;;;5061461;28;20361;-46
2021/10/02 10:06:17;;;;;;;2.72;0.10;;;23.10;52.00;;;;;;5060266;28;20402;-48
2021/10/02 10:08:43;;;;;;;;;;;23.10;51.90;;;;;;5062644;28;20045;-46
2021/10/02 10:11:13;;;;;;;0.20;0.10;;;23.10;52.00;;;;;;5061930;28;19921;-47
2021/10/02 10:13:40;;;;;;;1.30;0.00;;;23.10;52.10;;;;;;5048681;28;20048;-45
2021/10/02 10:16:08;;;;;;;0.85;0.10;;;23.10;52.00;;;;;;5049770;28;20051;-47
2021/10/02 10:18:38;;;;;;;3.28;0.13;;;23.10;51.90;;;;;;5053616;28;20053;-46
2021/10/02 10:21:06;;;;;;;2.85;0.10;;;23.20;51.90;;;;;;5057835;28;20040;-48
2021/10/02 10:23:35;;;;;;;3.50;0.10;;;23.20;51.80;;;;;;5060640;28;20048;-50
2021/10/02 10:26:04;;;;;;;0.17;0.00;;;23.20;51.70;;;;;;5053424;28;20064;-46
2021/10/02 10:28:35;;;;;;;0.75;0.10;;;23.20;51.70;;;;;;5059928;28;20037;-48
2021/10/02 10:31:14;;;;;;;0.50;0.10;;;23.20;51.60;;;;;;5064450;28;20033;-51
2021/10/02 10:33:44;;;;;;;0.20;0.10;;;23.20;51.50;;;;;;5064245;28;20032;-46
2021/10/02 10:36:13;;;;;;;0.10;0.10;;;23.20;51.50;;;;;;5056371;28;20033;-47
2021/10/02 10:38:41;;;;;;;1.00;0.10;;;23.20;51.50;;;;;;5054592;28;20528;-46
2021/10/02 10:41:08;;;;;;;2.08;0.10;;;23.20;51.50;;;;;;5051022;28;20089;-49
2021/10/02 10:43:37;;;;;;;1.50;0.10;;;23.20;51.40;;;;;;5065775;28;20048;-46
2021/10/02 10:46:07;;;;;;;0.43;0.10;;;23.20;51.40;;;;;;5057952;28;20064;-46
2021/10/02 10:48:35;;;;;;;0.30;0.10;;;23.20;51.30;;;;;;5062337;28;20064;-46
2021/10/02 10:51:04;;;;;;;0.55;0.15;;;23.20;51.30;;;;;;5061147;28;20492;-47
2021/10/02 10:53:35;;;;;;;2.28;0.13;;;23.30;51.30;;;;;;5061764;28;23280;-51
2021/10/02 10:56:03;;;;;;;3.38;0.17;;;23.30;51.30;;;;;;5062343;28;20087;-49
2021/10/02 10:58:32;;;;;;;1.27;0.10;;;23.30;51.30;;;;;;5065683;28;20037;-49
2021/10/02 11:01:04;;;;;;;0.52;0.10;;;23.30;51.30;;;;;;5063611;28;20044;-49
2021/10/02 11:03:38;;;;;;;2.17;0.20;;;23.30;51.20;;;;;;5058094;28;20041;-47
2021/10/02 11:06:06;;;;;;;0.35;0.10;;;23.30;51.20;;;;;;5060879;28;20044;-47
2021/10/02 11:09:00;;;;;;;1.63;0.40;;;23.30;51.10;;;;;;5059196;28;20493;-47
2021/10/02 11:11:56;;;;;;;5.40;0.17;;;23.30;51.00;;;;;;5051811;28;20140;-46
2021/10/02 11:14:45;;;;;;;0.70;0.20;;;23.30;51.10;;;;;;5060171;28;20033;-47
2021/10/02 11:17:14;;;;;;;0.63;0.10;;;23.30;51.10;;;;;;5064540;28;20295;-46
2021/10/02 11:19:42;;;;;;;0.32;0.10;;;23.20;51.20;;;;;;5049476;28;20036;-46
2021/10/02 11:22:49;;;;;;;0.47;0.10;;;23.30;51.10;;;;;;5064427;28;20075;-46
2021/10/02 11:25:17;;;;;;;0.20;0.10;;;23.30;51.00;;;;;;5002653;28;20053;-46
2021/10/02 11:27:45;;;;;;;1.65;0.10;;;23.30;51.10;;;;;;4987288;28;20058;-46
2021/10/02 11:30:13;;;;;;;0.20;0.10;;;23.30;51.00;;;;;;4977307;28;20048;-47
2021/10/02 11:32:41;;;;;;;1.15;0.20;;;23.30;51.00;;;;;;4995324;28;20056;-46
2021/10/02 11:35:23;;;;;;;1.75;0.20;;;23.30;51.00;;;;;;4989365;28;20202;-46
2021/10/02 11:37:53;;;;;;;1.30;0.20;;;23.30;51.00;;;;;;4986769;28;20545;-47
2021/10/02 11:40:49;;;;;;;0.60;0.10;;;23.30;51.00;;;;;;5001431;28;20181;-48
2021/10/02 11:43:32;;;;;;;1.08;0.30;;;23.30;50.90;;;;;;5001856;28;20447;-46
2021/10/02 11:46:06;;;;;;;0.50;0.20;;;23.30;50.90;;;;;;4990878;28;20766;-46
2021/10/02 11:48:39;;;;;;;0.30;0.30;;;23.30;51.00;;;;;;4998951;28;20057;-48
2021/10/02 11:51:21;;;;;;;0.70;0.20;;;23.30;51.00;;;;;;4998230;28;20045;-47
2021/10/02 11:53:50;;;;;;;1.98;0.60;;;23.30;50.90;;;;;;4997231;28;20061;-47
2021/10/02 11:56:21;;;;;;;0.35;0.20;;;23.30;51.00;;;;;;4998327;28;20049;-46
2021/10/02 11:58:48;;;;;;;1.17;0.65;;;23.30;50.90;;;;;;5005000;28;20042;-46
2021/10/02 12:01:24;;;;;;;1.55;0.28;;;23.30;50.90;;;;;;5007189;28;20057;-46
2021/10/02 12:04:01;;;;;;;2.92;0.10;;;23.30;50.90;;;;;;5056540;28;20509;-47
2021/10/02 12:06:30;;;;;;;0.88;0.30;;;23.30;50.90;;;;;;5063110;28;20530;-46
2021/10/02 12:08:58;;;;;;;1.13;0.10;;;23.30;50.90;;;;;;5059859;28;20048;-46
2021/10/02 12:11:25;;;;;;;0.43;0.10;;;23.30;50.90;;;;;;5054245;28;20040;-46
2021/10/02 12:13:55;;;;;;;0.40;0.30;;;23.30;50.90;;;;;;5053088;28;20029;-47
2021/10/02 12:16:23;;;;;;;1.40;0.32;;;23.30;50.90;;;;;;5068323;28;20679;-48
2021/10/02 12:18:57;;;;;;;0.95;0.20;;;23.30;50.90;;;;;;5056361;28;20057;-47
2021/10/02 12:21:32;;;;;;;0.95;0.20;;;23.30;50.90;;;;;;5054570;28;20041;-46
2021/10/02 12:24:03;;;;;;;1.15;0.10;;;23.30;50.80;;;;;;5054857;28;20059;-48
2021/10/02 12:26:31;;;;;;;1.75;0.28;;;23.30;50.90;;;;;;5056184;28;20049;-49
2021/10/02 12:29:00;;;;;;;0.38;0.22;;;23.40;50.90;;;;;;5066594;28;20037;-47
2021/10/02 12:31:44;;;;;;;0.20;0.20;;;23.30;50.90;;;;;;5067520;28;20053;-47
2021/10/02 12:34:13;;;;;;;1.50;0.20;;;23.30;50.80;;;;;;5067168;28;20044;-50
2021/10/02 12:36:44;;;;;;;0.35;0.10;;;23.30;50.90;;;;;;5064401;28;20420;-45
2021/10/02 12:39:11;;;;;;;0.55;0.55;;;23.30;50.90;;;;;;5057599;28;20052;-47
2021/10/02 12:41:41;;;;;;;0.93;0.20;;;23.30;51.10;;;;;;5053869;28;20118;-45
2021/10/02 12:44:16;;;;;;;0.20;0.10;;;23.30;50.90;;;;;;5054427;28;20054;-46
2021/10/02 12:46:44;;;;;;;2.92;0.35;;;23.30;50.90;;;;;;5050273;28;20055;-48
2021/10/02 12:49:12;;;;;;;0.85;0.30;;;23.30;50.90;;;;;;5051364;28;20072;-46
2021/10/02 12:51:42;;;;;;;1.40;0.20;;;23.30;50.90;;;;;;5055637;28;20041;-49
2021/10/02 12:54:10;;;;;;;1.65;0.20;;;23.30;50.90;;;;;;5057140;28;20049;-49
2021/10/02 12:57:04;;;;;;;0.35;0.20;;;23.40;50.90;;;;;;5053692;28;20044;-45
2021/10/02 12:59:46;;;;;;;1.40;0.10;;;23.30;50.80;;;;;;5059649;28;20576;-45
2021/10/02 13:02:14;;;;;;;1.35;0.10;;;23.30;50.90;;;;;;5066240;28;20127;-46
2021/10/02 13:04:41;;;;;;;1.67;0.22;;;23.30;50.90;;;;;;5062647;28;20047;-46
2021/10/02 13:07:10;;;;;;;0.73;0.35;;;23.30;51.00;;;;;;5066969;28;20531;-45
2021/10/02 13:09:59;;;;;;;0.47;0.43;;;23.30;50.90;;;;;;5053433;28;20417;-50
2021/10/02 13:12:31;;;;;;;0.90;0.10;;;23.30;50.80;;;;;;5053340;28;20041;-47
2021/10/02 13:14:59;;;;;;;0.82;0.22;;;23.30;50.90;;;;;;5058956;28;20047;-45
2021/10/02 13:17:26;;;;;;;0.20;0.10;;;23.30;50.90;;;;;;5053585;28;20036;-47
2021/10/02 13:20:16;;;;;;;1.52;0.43;;;23.30;51.00;;;;;;5065917;28;20044;-44
2021/10/02 13:22:50;;;;;;;0.30;0.10;;;23.30;50.90;;;;;;5061248;28;20524;-47
2021/10/02 13:25:23;;;;;;;1.45;0.10;;;23.30;51.00;;;;;;5052787;28;20033;-45
2021/10/02 13:27:54;;;;;;;0.40;0.25;;;23.30;51.00;;;;;;5061241;28;20055;-45
2021/10/02 13:30:23;;;;;;;0.40;0.10;;;23.30;51.00;;;;;;5063694;28;20044;-48
2021/10/02 13:33:03;;;;;;;1.48;0.20;;;23.30;51.00;;;;;;5062384;28;20040;-46
2021/10/02 13:35:32;;;;;;;0.57;0.15;;;23.30;51.00;;;;;;5062648;28;20047;-46
2021/10/02 13:38:01;;;;;;;0.35;0.20;;;23.30;51.00;;;;;;5065772;28;20040;-46
2021/10/02 13:40:33;;;;;;;0.10;0.08;;;23.30;51.40;;;;;;5051022;28;20043;-47
2021/10/02 13:43:03;;;;;;;1.65;0.20;;;23.30;51.00;;;;;;5055245;28;20048;-49
2021/10/02 13:45:33;;;;;;;0.73;0.50;;;23.30;51.00;;;;;;5053046;28;20045;-46
2021/10/02 13:48:05;;;;;;;0.10;0.10;;;23.30;51.00;;;;;;5055856;28;20084;-47
2021/10/02 13:50:33;;;;;;;1.27;0.10;;;23.30;51.00;;;;;;5062461;28;20440;-46